sensor_id;sensor_type;location;lat;lon;timestamp;temperature;humidity
62583;DHT22;48641;51.676;5.808;2023-02-21T00:01:53;15.10;65.50
62583;DHT22;48641;51.676;5.808;2023-02-21T00:04:37;15.10;65.50
62583;DHT22;48641;51.676;5.808;2023-02-21T00:07:22;15.10;65.40
62583;DHT22;48641;51.676;5.808;2023-02-21T00:10:07;15.10;65.50
62583;DHT22;48641;51.676;5.808;2023-02-21T00:12:52;15.10;65.50
62583;DHT22;48641;51.676;5.808;2023-02-21T00:15:36;15.10;65.50
62583;DHT22;48641;51.676;5.808;2023-02-21T00:18:20;15.10;65.50
62583;DHT22;48641;51.676;5.808;2023-02-21T00:21:04;15.10;65.50
62583;DHT22;48641;51.676;5.808;2023-02-21T00:23:48;15.10;65.50
62583;DHT22;48641;51.676;5.808;2023-02-21T00:26:32;15.10;65.50
62583;DHT22;48641;51.676;5.808;2023-02-21T00:29:16;15.10;65.40
62583;DHT22;48641;51.676;5.808;2023-02-21T00:32:01;15.10;65.50
62583;DHT22;48641;51.676;5.808;2023-02-21T00:34:45;15.10;65.50
62583;DHT22;48641;51.676;5.808;2023-02-21T00:37:29;15.10;65.50
62583;DHT22;48641;51.676;5.808;2023-02-21T00:40:14;15.10;65.40
62583;DHT22;48641;51.676;5.808;2023-02-21T00:42:58;15.10;65.50
62583;DHT22;48641;51.676;5.808;2023-02-21T00:45:43;15.10;65.50
62583;DHT22;48641;51.676;5.808;2023-02-21T00:48:27;15.10;65.50
62583;DHT22;48641;51.676;5.808;2023-02-21T00:51:11;15.10;66.10
62583;DHT22;48641;51.676;5.808;2023-02-21T00:53:55;15.10;65.50
62583;DHT22;48641;51.676;5.808;2023-02-21T00:56:40;15.10;65.50
62583;DHT22;48641;51.676;5.808;2023-02-21T00:59:24;15.10;65.50
62583;DHT22;48641;51.676;5.808;2023-02-21T01:02:09;15.10;65.50
62583;DHT22;48641;51.676;5.808;2023-02-21T01:04:53;15.10;65.50
62583;DHT22;48641;51.676;5.808;2023-02-21T01:07:38;15.10;65.50
62583;DHT22;48641;51.676;5.808;2023-02-21T01:10:22;15.00;65.40
62583;DHT22;48641;51.676;5.808;2023-02-21T01:13:06;15.10;65.50
62583;DHT22;48641;51.676;5.808;2023-02-21T01:15:50;15.10;65.50
62583;DHT22;48641;51.676;5.808;2023-02-21T01:18:34;15.10;65.50
62583;DHT22;48641;51.676;5.808;2023-02-21T01:21:19;15.10;65.50
62583;DHT22;48641;51.676;5.808;2023-02-21T01:24:05;15.00;65.40
62583;DHT22;48641;51.676;5.808;2023-02-21T01:26:49;15.00;65.40
62583;DHT22;48641;51.676;5.808;2023-02-21T01:29:34;15.00;65.40
62583;DHT22;48641;51.676;5.808;2023-02-21T01:32:18;15.00;65.40
62583;DHT22;48641;51.676;5.808;2023-02-21T01:35:02;15.00;65.40
62583;DHT22;48641;51.676;5.808;2023-02-21T01:37:46;15.00;65.40
62583;DHT22;48641;51.676;5.808;2023-02-21T01:40:30;15.10;65.50
62583;DHT22;48641;51.676;5.808;2023-02-21T01:43:20;15.00;65.40
62583;DHT22;48641;51.676;5.808;2023-02-21T01:46:05;15.00;65.40
62583;DHT22;48641;51.676;5.808;2023-02-21T01:48:51;15.00;65.50
62583;DHT22;48641;51.676;5.808;2023-02-21T01:51:39;15.00;65.50
62583;DHT22;48641;51.676;5.808;2023-02-21T01:54:28;15.00;65.50
62583;DHT22;48641;51.676;5.808;2023-02-21T01:57:13;15.00;65.50
62583;DHT22;48641;51.676;5.808;2023-02-21T01:59:59;15.00;65.50
62583;DHT22;48641;51.676;5.808;2023-02-21T02:03:02;15.00;65.50
62583;DHT22;48641;51.676;5.808;2023-02-21T02:05:55;15.00;65.40
62583;DHT22;48641;51.676;5.808;2023-02-21T02:08:40;15.00;65.40
62583;DHT22;48641;51.676;5.808;2023-02-21T02:20:31;15.00;65.50
62583;DHT22;48641;51.676;5.808;2023-02-21T02:23:26;15.00;65.50
62583;DHT22;48641;51.676;5.808;2023-02-21T02:34:36;15.00;65.40
62583;DHT22;48641;51.676;5.808;2023-02-21T02:44:50;15.00;65.50
62583;DHT22;48641;51.676;5.808;2023-02-21T02:47:22;15.00;65.40
62583;DHT22;48641;51.676;5.808;2023-02-21T02:49:50;15.00;65.40
62583;DHT22;48641;51.676;5.808;2023-02-21T02:52:17;15.00;65.40
62583;DHT22;48641;51.676;5.808;2023-02-21T02:54:42;15.00;65.40
62583;DHT22;48641;51.676;5.808;2023-02-21T02:57:09;15.00;65.40
62583;DHT22;48641;51.676;5.808;2023-02-21T02:59:39;15.00;65.30
62583;DHT22;48641;51.676;5.808;2023-02-21T03:04:52;15.00;65.30
62583;DHT22;48641;51.676;5.808;2023-02-21T03:15:28;15.00;65.40
62583;DHT22;48641;51.676;5.808;2023-02-21T03:18:00;15.00;65.40
62583;DHT22;48641;51.676;5.808;2023-02-21T03:20:29;15.00;65.30
62583;DHT22;48641;51.676;5.808;2023-02-21T03:22:56;15.00;65.40
62583;DHT22;48641;51.676;5.808;2023-02-21T03:25:23;15.00;65.30
62583;DHT22;48641;51.676;5.808;2023-02-21T03:27:50;15.00;65.30
62583;DHT22;48641;51.676;5.808;2023-02-21T03:30:18;15.00;65.30
62583;DHT22;48641;51.676;5.808;2023-02-21T03:32:48;15.00;65.30
62583;DHT22;48641;51.676;5.808;2023-02-21T03:35:14;15.00;65.30
62583;DHT22;48641;51.676;5.808;2023-02-21T03:37:43;15.00;65.30
62583;DHT22;48641;51.676;5.808;2023-02-21T03:42:39;15.00;65.20
62583;DHT22;48641;51.676;5.808;2023-02-21T03:45:05;15.00;65.30
62583;DHT22;48641;51.676;5.808;2023-02-21T03:47:31;15.00;65.20
62583;DHT22;48641;51.676;5.808;2023-02-21T03:49:57;15.00;65.20
62583;DHT22;48641;51.676;5.808;2023-02-21T03:52:23;15.00;65.20
62583;DHT22;48641;51.676;5.808;2023-02-21T03:54:48;15.00;65.20
62583;DHT22;48641;51.676;5.808;2023-02-21T03:57:14;15.00;65.20
62583;DHT22;48641;51.676;5.808;2023-02-21T03:59:40;15.00;65.20
62583;DHT22;48641;51.676;5.808;2023-02-21T04:02:05;15.00;65.20
62583;DHT22;48641;51.676;5.808;2023-02-21T04:04:31;15.00;65.20
62583;DHT22;48641;51.676;5.808;2023-02-21T04:06:57;15.00;65.20
62583;DHT22;48641;51.676;5.808;2023-02-21T04:09:22;15.00;66.10
62583;DHT22;48641;51.676;5.808;2023-02-21T04:11:50;15.00;65.20
62583;DHT22;48641;51.676;5.808;2023-02-21T04:14:15;15.00;66.10
62583;DHT22;48641;51.676;5.808;2023-02-21T04:16:41;15.00;65.20
62583;DHT22;48641;51.676;5.808;2023-02-21T04:19:06;15.00;65.10
62583;DHT22;48641;51.676;5.808;2023-02-21T04:21:32;15.00;65.10
62583;DHT22;48641;51.676;5.808;2023-02-21T04:23:58;15.00;65.20
62583;DHT22;48641;51.676;5.808;2023-02-21T04:26:23;15.00;65.10
62583;DHT22;48641;51.676;5.808;2023-02-21T04:28:50;15.00;65.20
62583;DHT22;48641;51.676;5.808;2023-02-21T04:31:17;15.00;65.20
62583;DHT22;48641;51.676;5.808;2023-02-21T04:33:43;15.00;65.20
62583;DHT22;48641;51.676;5.808;2023-02-21T04:36:09;15.00;65.20
62583;DHT22;48641;51.676;5.808;2023-02-21T04:38:35;15.00;65.10
62583;DHT22;48641;51.676;5.808;2023-02-21T04:41:02;15.00;65.10
62583;DHT22;48641;51.676;5.808;2023-02-21T04:43:28;15.00;65.10
62583;DHT22;48641;51.676;5.808;2023-02-21T04:45:54;15.00;65.20
62583;DHT22;48641;51.676;5.808;2023-02-21T04:48:20;15.00;65.10
62583;DHT22;48641;51.676;5.808;2023-02-21T04:50:45;15.00;65.20
62583;DHT22;48641;51.676;5.808;2023-02-21T04:53:11;15.00;65.20
62583;DHT22;48641;51.676;5.808;2023-02-21T04:55:37;15.00;65.20
62583;DHT22;48641;51.676;5.808;2023-02-21T04:58:03;15.00;65.20
62583;DHT22;48641;51.676;5.808;2023-02-21T05:00:29;15.00;65.20
62583;DHT22;48641;51.676;5.808;2023-02-21T05:02:55;15.00;65.10
62583;DHT22;48641;51.676;5.808;2023-02-21T05:05:20;15.00;65.20
62583;DHT22;48641;51.676;5.808;2023-02-21T05:07:46;15.00;65.20
62583;DHT22;48641;51.676;5.808;2023-02-21T05:10:13;15.00;65.10
62583;DHT22;48641;51.676;5.808;2023-02-21T05:12:39;15.00;65.10
62583;DHT22;48641;51.676;5.808;2023-02-21T05:15:05;15.00;65.10
62583;DHT22;48641;51.676;5.808;2023-02-21T05:17:31;15.00;65.10
62583;DHT22;48641;51.676;5.808;2023-02-21T05:19:56;15.00;65.20
62583;DHT22;48641;51.676;5.808;2023-02-21T05:22:22;15.00;65.10
62583;DHT22;48641;51.676;5.808;2023-02-21T05:24:48;15.00;65.20
62583;DHT22;48641;51.676;5.808;2023-02-21T05:27:15;15.00;65.20
62583;DHT22;48641;51.676;5.808;2023-02-21T05:29:48;15.00;65.20
62583;DHT22;48641;51.676;5.808;2023-02-21T05:32:15;15.00;65.20
62583;DHT22;48641;51.676;5.808;2023-02-21T05:34:41;15.00;65.20
62583;DHT22;48641;51.676;5.808;2023-02-21T05:37:16;15.00;65.20
62583;DHT22;48641;51.676;5.808;2023-02-21T05:39:42;15.00;65.20
62583;DHT22;48641;51.676;5.808;2023-02-21T05:42:08;14.90;66.20
62583;DHT22;48641;51.676;5.808;2023-02-21T05:44:33;14.90;65.20
62583;DHT22;48641;51.676;5.808;2023-02-21T05:46:59;15.00;65.20
62583;DHT22;48641;51.676;5.808;2023-02-21T05:49:27;14.90;65.20
62583;DHT22;48641;51.676;5.808;2023-02-21T05:51:52;14.90;65.20
62583;DHT22;48641;51.676;5.808;2023-02-21T05:54:19;14.90;65.10
62583;DHT22;48641;51.676;5.808;2023-02-21T05:56:47;14.90;65.10
62583;DHT22;48641;51.676;5.808;2023-02-21T05:59:15;14.90;65.20
62583;DHT22;48641;51.676;5.808;2023-02-21T06:01:41;14.90;65.20
62583;DHT22;48641;51.676;5.808;2023-02-21T06:04:07;15.00;65.20
62583;DHT22;48641;51.676;5.808;2023-02-21T06:06:33;14.90;65.10
62583;DHT22;48641;51.676;5.808;2023-02-21T06:08:59;14.90;65.20
62583;DHT22;48641;51.676;5.808;2023-02-21T06:11:28;14.90;65.20
62583;DHT22;48641;51.676;5.808;2023-02-21T06:13:56;14.90;65.20
62583;DHT22;48641;51.676;5.808;2023-02-21T06:16:23;14.90;65.10
62583;DHT22;48641;51.676;5.808;2023-02-21T06:18:50;14.90;65.20
62583;DHT22;48641;51.676;5.808;2023-02-21T06:21:16;14.90;65.20
62583;DHT22;48641;51.676;5.808;2023-02-21T06:23:43;14.90;65.20
62583;DHT22;48641;51.676;5.808;2023-02-21T06:26:09;14.90;65.20
62583;DHT22;48641;51.676;5.808;2023-02-21T06:28:35;15.00;65.30
62583;DHT22;48641;51.676;5.808;2023-02-21T06:31:01;14.90;65.30
62583;DHT22;48641;51.676;5.808;2023-02-21T06:33:27;14.90;66.20
62583;DHT22;48641;51.676;5.808;2023-02-21T06:35:53;14.90;65.20
62583;DHT22;48641;51.676;5.808;2023-02-21T06:38:18;14.90;65.20
62583;DHT22;48641;51.676;5.808;2023-02-21T06:40:44;14.90;65.20
62583;DHT22;48641;51.676;5.808;2023-02-21T06:43:09;14.90;65.20
62583;DHT22;48641;51.676;5.808;2023-02-21T06:45:35;14.90;65.20
62583;DHT22;48641;51.676;5.808;2023-02-21T06:48:00;14.90;65.20
62583;DHT22;48641;51.676;5.808;2023-02-21T06:50:26;14.90;65.20
62583;DHT22;48641;51.676;5.808;2023-02-21T06:52:52;14.90;65.20
62583;DHT22;48641;51.676;5.808;2023-02-21T06:55:21;14.90;65.20
62583;DHT22;48641;51.676;5.808;2023-02-21T06:57:47;14.90;65.20
62583;DHT22;48641;51.676;5.808;2023-02-21T07:00:14;14.90;65.20
62583;DHT22;48641;51.676;5.808;2023-02-21T07:02:40;14.90;65.20
62583;DHT22;48641;51.676;5.808;2023-02-21T07:05:07;14.90;65.20
62583;DHT22;48641;51.676;5.808;2023-02-21T07:07:33;14.90;65.20
62583;DHT22;48641;51.676;5.808;2023-02-21T07:09:58;14.90;65.20
62583;DHT22;48641;51.676;5.808;2023-02-21T07:12:24;14.90;65.20
62583;DHT22;48641;51.676;5.808;2023-02-21T07:14:53;14.90;65.20
62583;DHT22;48641;51.676;5.808;2023-02-21T07:17:18;14.90;65.30
62583;DHT22;48641;51.676;5.808;2023-02-21T07:19:44;14.90;65.20
62583;DHT22;48641;51.676;5.808;2023-02-21T07:22:10;14.90;65.20
62583;DHT22;48641;51.676;5.808;2023-02-21T07:24:35;14.90;65.20
62583;DHT22;48641;51.676;5.808;2023-02-21T07:27:01;14.90;66.20
62583;DHT22;48641;51.676;5.808;2023-02-21T07:29:27;14.90;65.20
62583;DHT22;48641;51.676;5.808;2023-02-21T07:31:53;14.90;65.20
62583;DHT22;48641;51.676;5.808;2023-02-21T07:34:19;14.90;66.20
62583;DHT22;48641;51.676;5.808;2023-02-21T07:36:46;14.90;65.20
62583;DHT22;48641;51.676;5.808;2023-02-21T07:39:12;14.90;65.20
62583;DHT22;48641;51.676;5.808;2023-02-21T07:41:37;14.90;65.20
62583;DHT22;48641;51.676;5.808;2023-02-21T07:44:03;14.90;65.20
62583;DHT22;48641;51.676;5.808;2023-02-21T07:46:29;14.90;65.20
62583;DHT22;48641;51.676;5.808;2023-02-21T07:48:55;14.90;65.20
62583;DHT22;48641;51.676;5.808;2023-02-21T07:51:20;14.90;65.20
62583;DHT22;48641;51.676;5.808;2023-02-21T07:53:46;14.90;65.20
62583;DHT22;48641;51.676;5.808;2023-02-21T07:56:12;14.90;65.20
62583;DHT22;48641;51.676;5.808;2023-02-21T07:58:38;14.90;66.20
62583;DHT22;48641;51.676;5.808;2023-02-21T08:01:07;14.90;65.20
62583;DHT22;48641;51.676;5.808;2023-02-21T08:03:32;14.90;65.20
62583;DHT22;48641;51.676;5.808;2023-02-21T08:05:59;14.90;65.20
62583;DHT22;48641;51.676;5.808;2023-02-21T08:08:25;14.90;65.20
62583;DHT22;48641;51.676;5.808;2023-02-21T08:10:50;14.80;65.10
62583;DHT22;48641;51.676;5.808;2023-02-21T08:13:16;14.90;65.20
62583;DHT22;48641;51.676;5.808;2023-02-21T08:15:42;14.90;65.20
62583;DHT22;48641;51.676;5.808;2023-02-21T08:18:19;14.80;65.20
62583;DHT22;48641;51.676;5.808;2023-02-21T08:20:46;14.90;65.20
62583;DHT22;48641;51.676;5.808;2023-02-21T08:23:12;14.90;65.30
62583;DHT22;48641;51.676;5.808;2023-02-21T08:25:38;14.90;65.20
62583;DHT22;48641;51.676;5.808;2023-02-21T08:28:03;14.90;65.20
62583;DHT22;48641;51.676;5.808;2023-02-21T08:30:29;14.80;65.20
62583;DHT22;48641;51.676;5.808;2023-02-21T08:32:55;14.90;65.30
62583;DHT22;48641;51.676;5.808;2023-02-21T08:35:20;14.90;65.30
62583;DHT22;48641;51.676;5.808;2023-02-21T08:37:47;14.90;65.20
62583;DHT22;48641;51.676;5.808;2023-02-21T08:40:14;14.90;65.30
62583;DHT22;48641;51.676;5.808;2023-02-21T08:42:40;14.80;65.20
62583;DHT22;48641;51.676;5.808;2023-02-21T08:45:06;14.90;65.20
62583;DHT22;48641;51.676;5.808;2023-02-21T08:47:35;14.90;65.30
62583;DHT22;48641;51.676;5.808;2023-02-21T08:50:01;14.90;65.50
62583;DHT22;48641;51.676;5.808;2023-02-21T08:52:26;14.80;65.40
62583;DHT22;48641;51.676;5.808;2023-02-21T08:54:52;14.90;65.40
62583;DHT22;48641;51.676;5.808;2023-02-21T08:57:18;14.80;65.40
62583;DHT22;48641;51.676;5.808;2023-02-21T08:59:44;14.80;65.30
62583;DHT22;48641;51.676;5.808;2023-02-21T09:02:21;14.80;65.30
62583;DHT22;48641;51.676;5.808;2023-02-21T09:04:49;14.90;65.40
62583;DHT22;48641;51.676;5.808;2023-02-21T09:07:17;14.80;65.30
62583;DHT22;48641;51.676;5.808;2023-02-21T09:09:43;14.80;65.30
62583;DHT22;48641;51.676;5.808;2023-02-21T09:12:09;14.80;65.30
62583;DHT22;48641;51.676;5.808;2023-02-21T09:14:39;14.80;65.30
62583;DHT22;48641;51.676;5.808;2023-02-21T09:17:07;14.80;65.40
62583;DHT22;48641;51.676;5.808;2023-02-21T09:19:33;14.90;66.50
62583;DHT22;48641;51.676;5.808;2023-02-21T09:21:59;14.90;66.50
62583;DHT22;48641;51.676;5.808;2023-02-21T09:24:25;14.90;66.10
62583;DHT22;48641;51.676;5.808;2023-02-21T09:26:52;14.90;66.00
62583;DHT22;48641;51.676;5.808;2023-02-21T09:29:20;14.90;65.80
62583;DHT22;48641;51.676;5.808;2023-02-21T09:31:46;14.90;65.80
62583;DHT22;48641;51.676;5.808;2023-02-21T09:34:11;14.90;65.70
62583;DHT22;48641;51.676;5.808;2023-02-21T09:36:37;14.90;65.70
62583;DHT22;48641;51.676;5.808;2023-02-21T09:39:03;14.90;65.70
62583;DHT22;48641;51.676;5.808;2023-02-21T09:41:32;14.90;65.60
62583;DHT22;48641;51.676;5.808;2023-02-21T09:43:59;14.80;65.60
62583;DHT22;48641;51.676;5.808;2023-02-21T09:46:33;14.80;65.50
62583;DHT22;48641;51.676;5.808;2023-02-21T09:49:00;14.80;65.60
62583;DHT22;48641;51.676;5.808;2023-02-21T09:51:29;14.80;65.50
62583;DHT22;48641;51.676;5.808;2023-02-21T09:53:56;14.80;65.50
62583;DHT22;48641;51.676;5.808;2023-02-21T09:56:32;14.80;65.50
62583;DHT22;48641;51.676;5.808;2023-02-21T09:59:00;14.90;65.50
62583;DHT22;48641;51.676;5.808;2023-02-21T10:06:58;14.80;65.60
62583;DHT22;48641;51.676;5.808;2023-02-21T10:17:48;14.80;65.60
62583;DHT22;48641;51.676;5.808;2023-02-21T10:20:26;14.80;65.60
62583;DHT22;48641;51.676;5.808;2023-02-21T10:22:54;14.80;65.60
62583;DHT22;48641;51.676;5.808;2023-02-21T10:25:30;14.80;65.60
62583;DHT22;48641;51.676;5.808;2023-02-21T10:27:58;14.80;65.60
62583;DHT22;48641;51.676;5.808;2023-02-21T10:30:33;14.80;65.70
62583;DHT22;48641;51.676;5.808;2023-02-21T10:33:03;14.80;65.60
62583;DHT22;48641;51.676;5.808;2023-02-21T10:35:32;14.80;65.60
62583;DHT22;48641;51.676;5.808;2023-02-21T10:38:00;14.80;65.60
62583;DHT22;48641;51.676;5.808;2023-02-21T10:41:05;14.80;65.50
62583;DHT22;48641;51.676;5.808;2023-02-21T10:43:43;14.80;65.40
62583;DHT22;48641;51.676;5.808;2023-02-21T10:48:51;14.70;65.60
62583;DHT22;48641;51.676;5.808;2023-02-21T10:51:32;14.80;65.60
62583;DHT22;48641;51.676;5.808;2023-02-21T10:56:44;14.80;65.50
62583;DHT22;48641;51.676;5.808;2023-02-21T10:59:28;14.70;65.60
62583;DHT22;48641;51.676;5.808;2023-02-21T11:01:56;14.80;65.60
62583;DHT22;48641;51.676;5.808;2023-02-21T11:04:25;14.70;65.60
62583;DHT22;48641;51.676;5.808;2023-02-21T11:06:58;14.80;65.60
62583;DHT22;48641;51.676;5.808;2023-02-21T11:09:32;14.80;65.60
62583;DHT22;48641;51.676;5.808;2023-02-21T11:17:28;14.80;65.50
62583;DHT22;48641;51.676;5.808;2023-02-21T11:20:20;14.80;65.60
62583;DHT22;48641;51.676;5.808;2023-02-21T11:22:49;14.80;65.60
62583;DHT22;48641;51.676;5.808;2023-02-21T11:25:27;14.70;65.60
62583;DHT22;48641;51.676;5.808;2023-02-21T11:28:18;14.70;65.60
62583;DHT22;48641;51.676;5.808;2023-02-21T11:33:28;14.70;66.60
62583;DHT22;48641;51.676;5.808;2023-02-21T11:36:08;14.70;65.60
62583;DHT22;48641;51.676;5.808;2023-02-21T11:38:43;14.70;65.60
62583;DHT22;48641;51.676;5.808;2023-02-21T11:43:50;14.70;65.60
62583;DHT22;48641;51.676;5.808;2023-02-21T11:46:36;14.70;65.60
62583;DHT22;48641;51.676;5.808;2023-02-21T11:52:02;14.70;65.60
62583;DHT22;48641;51.676;5.808;2023-02-21T11:54:29;14.70;65.50
62583;DHT22;48641;51.676;5.808;2023-02-21T11:57:04;14.70;65.70
62583;DHT22;48641;51.676;5.808;2023-02-21T11:59:48;14.70;65.60
62583;DHT22;48641;51.676;5.808;2023-02-21T12:10:48;14.70;65.70
62583;DHT22;48641;51.676;5.808;2023-02-21T12:13:27;14.70;65.60
62583;DHT22;48641;51.676;5.808;2023-02-21T12:32:48;14.70;66.10
62583;DHT22;48641;51.676;5.808;2023-02-21T12:46:31;14.90;66.10
62583;DHT22;48641;51.676;5.808;2023-02-21T12:51:44;15.10;66.10
62583;DHT22;48641;51.676;5.808;2023-02-21T12:54:17;15.20;66.00
62583;DHT22;48641;51.676;5.808;2023-02-21T13:02:15;15.40;65.70
62583;DHT22;48641;51.676;5.808;2023-02-21T13:07:18;15.50;65.60
62583;DHT22;48641;51.676;5.808;2023-02-21T13:12:39;15.50;65.30
62583;DHT22;48641;51.676;5.808;2023-02-21T13:15:25;15.60;65.30
62583;DHT22;48641;51.676;5.808;2023-02-21T13:18:06;15.60;65.30
62583;DHT22;48641;51.676;5.808;2023-02-21T13:20:46;15.60;65.30
62583;DHT22;48641;51.676;5.808;2023-02-21T13:23:16;15.60;65.20
62583;DHT22;48641;51.676;5.808;2023-02-21T13:28:29;15.60;65.20
62583;DHT22;48641;51.676;5.808;2023-02-21T13:31:01;15.60;65.20
62583;DHT22;48641;51.676;5.808;2023-02-21T13:33:43;15.60;65.10
62583;DHT22;48641;51.676;5.808;2023-02-21T13:36:30;15.60;65.20
62583;DHT22;48641;51.676;5.808;2023-02-21T13:41:54;15.60;65.20
62583;DHT22;48641;51.676;5.808;2023-02-21T13:44:29;15.60;65.10
62583;DHT22;48641;51.676;5.808;2023-02-21T13:47:01;15.60;65.20
62583;DHT22;48641;51.676;5.808;2023-02-21T13:49:56;15.70;65.20
62583;DHT22;48641;51.676;5.808;2023-02-21T13:52:34;15.70;65.10
62583;DHT22;48641;51.676;5.808;2023-02-21T13:55:21;15.70;65.10
62583;DHT22;48641;51.676;5.808;2023-02-21T14:10:55;15.70;64.90
62583;DHT22;48641;51.676;5.808;2023-02-21T14:16:20;15.80;65.00
62583;DHT22;48641;51.676;5.808;2023-02-21T14:26:39;15.80;65.00
62583;DHT22;48641;51.676;5.808;2023-02-21T14:29:11;15.80;64.90
62583;DHT22;48641;51.676;5.808;2023-02-21T14:31:52;15.80;65.00
62583;DHT22;48641;51.676;5.808;2023-02-21T14:36:58;15.80;65.10
62583;DHT22;48641;51.676;5.808;2023-02-21T14:39:35;15.80;65.10
62583;DHT22;48641;51.676;5.808;2023-02-21T14:42:58;15.80;65.00
62583;DHT22;48641;51.676;5.808;2023-02-21T15:08:22;15.60;65.20
62583;DHT22;48641;51.676;5.808;2023-02-21T15:10:58;15.60;65.40
62583;DHT22;48641;51.676;5.808;2023-02-21T15:13:33;15.60;65.50
62583;DHT22;48641;51.676;5.808;2023-02-21T15:16:06;15.60;65.40
62583;DHT22;48641;51.676;5.808;2023-02-21T15:18:35;15.60;65.40
62583;DHT22;48641;51.676;5.808;2023-02-21T15:23:34;15.60;65.30
62583;DHT22;48641;51.676;5.808;2023-02-21T15:26:21;15.60;65.30
62583;DHT22;48641;51.676;5.808;2023-02-21T15:34:32;15.50;65.30
62583;DHT22;48641;51.676;5.808;2023-02-21T15:37:15;15.50;65.40
62583;DHT22;48641;51.676;5.808;2023-02-21T15:39:44;15.50;65.40
62583;DHT22;48641;51.676;5.808;2023-02-21T15:42:13;15.50;65.40
62583;DHT22;48641;51.676;5.808;2023-02-21T15:44:41;15.40;65.30
62583;DHT22;48641;51.676;5.808;2023-02-21T15:50:00;15.40;65.60
62583;DHT22;48641;51.676;5.808;2023-02-21T15:52:46;15.40;65.50
62583;DHT22;48641;51.676;5.808;2023-02-21T16:00:39;15.40;65.60
62583;DHT22;48641;51.676;5.808;2023-02-21T16:03:28;15.30;65.60
62583;DHT22;48641;51.676;5.808;2023-02-21T16:06:27;15.30;65.50
62583;DHT22;48641;51.676;5.808;2023-02-21T16:11:54;15.30;65.60
62583;DHT22;48641;51.676;5.808;2023-02-21T16:14:33;15.30;65.60
62583;DHT22;48641;51.676;5.808;2023-02-21T16:17:16;15.30;65.70
62583;DHT22;48641;51.676;5.808;2023-02-21T16:19:48;15.30;65.60
62583;DHT22;48641;51.676;5.808;2023-02-21T16:25:11;15.30;65.60
62583;DHT22;48641;51.676;5.808;2023-02-21T16:30:26;15.20;65.60
62583;DHT22;48641;51.676;5.808;2023-02-21T16:32:58;15.20;65.60
62583;DHT22;48641;51.676;5.808;2023-02-21T16:35:24;15.20;65.60
62583;DHT22;48641;51.676;5.808;2023-02-21T16:37:56;15.20;65.60
62583;DHT22;48641;51.676;5.808;2023-02-21T16:40:28;15.20;65.60
62583;DHT22;48641;51.676;5.808;2023-02-21T16:42:55;15.20;65.60
62583;DHT22;48641;51.676;5.808;2023-02-21T16:45:22;15.20;65.60
62583;DHT22;48641;51.676;5.808;2023-02-21T16:47:49;15.20;65.50
62583;DHT22;48641;51.676;5.808;2023-02-21T16:52:51;15.20;65.60
62583;DHT22;48641;51.676;5.808;2023-02-21T16:55:18;15.20;65.60
62583;DHT22;48641;51.676;5.808;2023-02-21T16:57:48;15.20;65.60
62583;DHT22;48641;51.676;5.808;2023-02-21T17:00:16;15.20;65.60
62583;DHT22;48641;51.676;5.808;2023-02-21T17:02:42;15.20;65.60
62583;DHT22;48641;51.676;5.808;2023-02-21T17:05:08;15.20;65.60
62583;DHT22;48641;51.676;5.808;2023-02-21T17:07:33;15.20;65.60
62583;DHT22;48641;51.676;5.808;2023-02-21T17:09:59;15.20;65.60
62583;DHT22;48641;51.676;5.808;2023-02-21T17:12:25;15.20;65.60
62583;DHT22;48641;51.676;5.808;2023-02-21T17:14:50;15.20;65.60
62583;DHT22;48641;51.676;5.808;2023-02-21T17:17:16;15.20;65.60
62583;DHT22;48641;51.676;5.808;2023-02-21T17:19:42;15.20;65.60
62583;DHT22;48641;51.676;5.808;2023-02-21T17:22:07;15.20;65.50
62583;DHT22;48641;51.676;5.808;2023-02-21T17:24:33;15.10;65.40
62583;DHT22;48641;51.676;5.808;2023-02-21T17:26:59;15.20;65.40
62583;DHT22;48641;51.676;5.808;2023-02-21T17:29:24;15.20;65.40
62583;DHT22;48641;51.676;5.808;2023-02-21T17:31:54;15.20;65.40
62583;DHT22;48641;51.676;5.808;2023-02-21T17:34:20;15.20;65.40
62583;DHT22;48641;51.676;5.808;2023-02-21T17:36:50;15.20;65.40
62583;DHT22;48641;51.676;5.808;2023-02-21T17:39:17;15.20;65.40
62583;DHT22;48641;51.676;5.808;2023-02-21T17:41:50;15.20;65.40
62583;DHT22;48641;51.676;5.808;2023-02-21T17:44:17;15.20;65.40
62583;DHT22;48641;51.676;5.808;2023-02-21T17:46:47;15.20;65.40
62583;DHT22;48641;51.676;5.808;2023-02-21T17:49:15;15.20;65.40
62583;DHT22;48641;51.676;5.808;2023-02-21T17:51:40;15.20;65.30
62583;DHT22;48641;51.676;5.808;2023-02-21T17:54:06;15.20;65.30
62583;DHT22;48641;51.676;5.808;2023-02-21T17:56:31;15.20;65.30
62583;DHT22;48641;51.676;5.808;2023-02-21T17:58:57;15.20;65.30
62583;DHT22;48641;51.676;5.808;2023-02-21T18:01:23;15.20;65.40
62583;DHT22;48641;51.676;5.808;2023-02-21T18:03:50;15.20;65.30
62583;DHT22;48641;51.676;5.808;2023-02-21T18:06:16;15.20;65.30
62583;DHT22;48641;51.676;5.808;2023-02-21T18:08:42;15.20;65.30
62583;DHT22;48641;51.676;5.808;2023-02-21T18:11:12;15.20;65.30
62583;DHT22;48641;51.676;5.808;2023-02-21T18:13:38;15.10;65.20
62583;DHT22;48641;51.676;5.808;2023-02-21T18:16:04;15.00;65.50
62583;DHT22;48641;51.676;5.808;2023-02-21T18:18:31;15.10;65.60
62583;DHT22;48641;51.676;5.808;2023-02-21T18:20:57;15.10;65.50
62583;DHT22;48641;51.676;5.808;2023-02-21T18:23:27;15.10;65.50
62583;DHT22;48641;51.676;5.808;2023-02-21T18:25:54;15.10;65.50
62583;DHT22;48641;51.676;5.808;2023-02-21T18:28:20;15.10;65.50
62583;DHT22;48641;51.676;5.808;2023-02-21T18:30:45;15.10;65.40
62583;DHT22;48641;51.676;5.808;2023-02-21T18:33:12;15.10;65.40
62583;DHT22;48641;51.676;5.808;2023-02-21T18:35:38;15.10;65.40
62583;DHT22;48641;51.676;5.808;2023-02-21T18:38:03;15.10;65.30
62583;DHT22;48641;51.676;5.808;2023-02-21T18:40:29;15.10;65.30
62583;DHT22;48641;51.676;5.808;2023-02-21T18:43:03;15.10;65.40
62583;DHT22;48641;51.676;5.808;2023-02-21T18:45:32;15.10;65.40
62583;DHT22;48641;51.676;5.808;2023-02-21T18:48:01;15.10;65.30
62583;DHT22;48641;51.676;5.808;2023-02-21T18:50:27;15.10;65.30
62583;DHT22;48641;51.676;5.808;2023-02-21T18:52:53;15.10;65.30
62583;DHT22;48641;51.676;5.808;2023-02-21T18:55:18;15.00;65.60
62583;DHT22;48641;51.676;5.808;2023-02-21T18:57:47;15.00;65.60
62583;DHT22;48641;51.676;5.808;2023-02-21T19:00:16;15.00;65.50
62583;DHT22;48641;51.676;5.808;2023-02-21T19:02:41;15.00;65.60
62583;DHT22;48641;51.676;5.808;2023-02-21T19:05:08;15.00;65.60
62583;DHT22;48641;51.676;5.808;2023-02-21T19:07:36;15.00;65.60
62583;DHT22;48641;51.676;5.808;2023-02-21T19:10:02;15.00;65.50
62583;DHT22;48641;51.676;5.808;2023-02-21T19:12:28;15.00;65.50
62583;DHT22;48641;51.676;5.808;2023-02-21T19:14:54;15.00;65.40
62583;DHT22;48641;51.676;5.808;2023-02-21T19:17:19;15.10;65.50
62583;DHT22;48641;51.676;5.808;2023-02-21T19:19:45;15.10;65.50